createdAt,value
2022-11-21T00:01:22.855Z,54.1
2022-11-21T00:03:28.471Z,53.6
2022-11-21T00:05:34.098Z,50.6
2022-11-21T00:07:39.723Z,54.3
2022-11-21T00:09:45.289Z,54.7
2022-11-21T00:11:50.900Z,50.2
2022-11-21T00:16:05.252Z,65.4
2022-11-21T00:18:10.839Z,57.4
2022-11-21T00:20:16.428Z,43.9
2022-11-21T00:22:22.045Z,54.5
2022-11-21T00:24:27.869Z,53.1
2022-11-21T00:26:33.241Z,52.7
2022-11-21T00:28:41.946Z,47.9
2022-11-21T00:30:47.541Z,52.2
2022-11-21T00:32:53.142Z,56.1
2022-11-21T00:33:57.505Z,62.2
2022-11-21T00:36:03.098Z,56.1
2022-11-21T00:38:08.708Z,65.3
2022-11-21T00:40:14.316Z,58.5
2022-11-21T00:42:23.008Z,45.8
2022-11-21T00:44:28.884Z,55.3
2022-11-21T00:46:34.247Z,50.6
2022-11-21T00:52:51.077Z,48
2022-11-21T00:57:05.369Z,63.4
2022-11-21T00:59:10.982Z,52.8
2022-11-21T01:03:22.193Z,49.1
2022-11-21T01:05:27.848Z,61.8
2022-11-21T01:07:33.387Z,51.9
2022-11-21T01:09:38.947Z,48
2022-11-21T01:13:53.247Z,48.6
2022-11-21T01:15:58.842Z,54.2
2022-11-21T01:18:04.457Z,56.4
2022-11-21T01:20:10.102Z,56
2022-11-21T01:22:15.677Z,51.1
2022-11-21T01:24:21.313Z,51.9
2022-11-21T01:28:35.630Z,44
2022-11-21T01:30:41.236Z,43.3
2022-11-21T01:31:45.568Z,65
2022-11-21T01:33:51.171Z,58.8
2022-11-21T01:35:56.799Z,49.4
2022-11-21T01:38:02.393Z,50.4
2022-11-21T01:40:11.093Z,56.9
2022-11-21T01:42:16.698Z,60.7
2022-11-21T01:44:22.289Z,54.3
2022-11-21T01:46:27.897Z,51.4
2022-11-21T01:48:33.500Z,56.8
2022-11-21T01:52:44.708Z,52.8
2022-11-21T01:54:53.395Z,52.9
2022-11-21T01:59:04.617Z,58.2
2022-11-21T02:03:15.816Z,51.4
2022-11-21T02:05:21.419Z,51.2
2022-11-21T02:11:41.323Z,54
2022-11-21T02:13:46.943Z,62.8
2022-11-21T02:15:52.577Z,48.1
2022-11-21T02:17:58.144Z,44.4
2022-11-21T02:20:03.752Z,48.7
2022-11-21T02:22:09.348Z,56.5
2022-11-21T02:24:18.018Z,53.1
2022-11-21T02:26:23.658Z,59.1
2022-11-21T02:29:33.602Z,57.6
2022-11-21T02:33:44.817Z,61.6
2022-11-21T02:35:50.407Z,54.9
2022-11-21T02:40:04.814Z,44.7
2022-11-21T02:42:10.344Z,51.2
2022-11-21T02:44:15.938Z,52.2
2022-11-21T02:46:21.545Z,66
2022-11-21T02:48:27.131Z,58.9
2022-11-21T02:50:32.737Z,59.5
2022-11-21T02:52:41.398Z,50.9
2022-11-21T02:54:47.013Z,55.3
2022-11-21T02:56:52.625Z,63
2022-11-21T02:58:58.211Z,59.6
2022-11-21T03:01:03.879Z,68
2022-11-21T03:03:09.421Z,57.3
2022-11-21T03:05:15.040Z,66.5
2022-11-21T03:09:29.327Z,50.4
2022-11-21T03:11:34.956Z,71
2022-11-21T03:17:51.734Z,66.7
2022-11-21T03:28:44.745Z,56.6
2022-11-21T03:30:50.386Z,53.6
2022-11-21T03:35:04.662Z,62.8
2022-11-21T03:37:10.283Z,52.7
2022-11-21T03:39:15.868Z,56.9
2022-11-21T03:41:21.471Z,62
2022-11-21T03:43:27.085Z,64.9
2022-11-21T03:45:32.710Z,58.8
2022-11-21T03:47:38.264Z,60.7
2022-11-21T03:49:46.936Z,68.6
2022-11-21T03:51:52.559Z,51.4
2022-11-21T03:53:58.146Z,58.2
2022-11-21T03:56:03.725Z,59.6
2022-11-21T03:58:09.333Z,64.5
2022-11-21T04:00:14.935Z,50.1
2022-11-21T04:02:20.527Z,56.7
2022-11-21T04:04:29.578Z,60.6
2022-11-21T04:06:34.821Z,55.7
2022-11-21T04:08:40.409Z,68.3
2022-11-21T04:17:02.761Z,68.6
2022-11-21T04:19:11.432Z,68.5
2022-11-21T04:21:17.022Z,63.7
2022-11-21T04:23:22.658Z,59
2022-11-21T04:26:32.560Z,67.7
2022-11-21T04:28:38.158Z,65.9
2022-11-21T04:30:43.726Z,67.3
2022-11-21T04:32:52.381Z,72.8
2022-11-21T04:34:57.954Z,60.1
2022-11-21T04:37:07.556Z,63.9
2022-11-21T04:39:09.135Z,49.8
2022-11-21T04:41:14.741Z,64
2022-11-21T04:43:20.350Z,69.4
2022-11-21T04:45:25.935Z,69.2
2022-11-21T04:47:34.591Z,65.8
2022-11-21T04:49:40.174Z,64.4
2022-11-21T04:51:45.781Z,55.6
2022-11-21T04:53:51.390Z,63.3
2022-11-21T04:55:56.973Z,70.4
2022-11-21T04:58:02.581Z,68.6
2022-11-21T05:00:08.170Z,57.3
2022-11-21T05:02:16.826Z,64.4
2022-11-21T05:04:22.408Z,58.2
2022-11-21T05:06:28.042Z,81.1
2022-11-21T05:08:33.640Z,69.4
2022-11-21T05:10:39.225Z,70.8
2022-11-21T05:12:44.811Z,65.6
2022-11-21T05:14:50.404Z,63.8
2022-11-21T05:16:59.099Z,53.3
2022-11-21T05:19:04.728Z,44.8
2022-11-21T05:21:10.317Z,49.4
2022-11-21T05:22:14.683Z,67.7
2022-11-21T05:30:40.170Z,73.6
2022-11-21T05:34:51.385Z,69.3
2022-11-21T05:36:57.041Z,76.5
2022-11-21T05:41:08.191Z,58.1
2022-11-21T05:43:13.813Z,64.1
2022-11-21T05:45:22.500Z,72
2022-11-21T05:47:28.086Z,76.9
2022-11-21T05:49:33.727Z,73.7
2022-11-21T05:51:39.309Z,80.1
2022-11-21T05:53:44.912Z,61.9
2022-11-21T05:55:50.499Z,84.4
2022-11-21T05:57:56.123Z,75.5
2022-11-21T06:02:10.564Z,83
2022-11-21T06:04:16.033Z,76.7
2022-11-21T06:06:24.816Z,67.2
2022-11-21T06:08:27.235Z,55.4
2022-11-21T06:10:32.852Z,74
2022-11-21T06:12:38.473Z,67.3
2022-11-21T06:14:47.143Z,85.6
2022-11-21T06:16:52.744Z,74.6
2022-11-21T06:18:59.021Z,73.7
2022-11-21T06:20:02.713Z,80.1
2022-11-21T06:22:08.327Z,66.4
2022-11-21T06:24:18.115Z,72.7
2022-11-21T06:26:19.570Z,65.2
2022-11-21T06:28:28.248Z,78
2022-11-21T06:30:33.876Z,62.7
2022-11-21T06:32:39.538Z,57.8
2022-11-21T06:34:45.081Z,62.6
2022-11-21T06:36:50.713Z,67.5
2022-11-21T06:38:56.352Z,71.5
2022-11-21T06:41:01.974Z,84.9
2022-11-21T06:43:10.662Z,77.5
2022-11-21T06:45:16.253Z,84
2022-11-21T06:53:38.705Z,59.1
2022-11-21T06:57:53.026Z,75
2022-11-21T06:59:58.639Z,74.3
2022-11-21T07:02:04.270Z,72
2022-11-21T07:04:09.885Z,77.8
2022-11-21T07:06:15.489Z,60.2
2022-11-21T07:08:21.137Z,61.9
2022-11-21T07:10:26.732Z,85.5
2022-11-21T07:12:35.408Z,62.3
2022-11-21T07:14:41.029Z,68.9
2022-11-21T07:16:46.672Z,70.6
2022-11-21T07:19:18.233Z,67.6
2022-11-21T07:21:23.820Z,66.9
2022-11-21T07:23:29.463Z,67.9
2022-11-21T07:25:38.147Z,78.4
2022-11-21T07:27:43.789Z,65
2022-11-21T07:29:49.404Z,86.2
2022-11-21T07:31:55.032Z,77.1
2022-11-21T07:34:00.663Z,70.6
2022-11-21T07:36:06.295Z,93.6
2022-11-21T07:38:11.906Z,64.6
2022-11-21T07:40:20.656Z,79.2
2022-11-21T07:46:37.493Z,130.1
2022-11-21T07:48:43.100Z,76
2022-11-21T07:50:48.706Z,86.8
2022-11-21T07:55:03.061Z,78
2022-11-21T07:57:08.685Z,72.2
2022-11-21T07:59:14.313Z,104.6
2022-11-21T08:01:19.952Z,100.6
2022-11-21T08:03:25.554Z,109.5
2022-11-21T08:05:31.502Z,102.3
2022-11-21T08:07:36.861Z,107.1
2022-11-21T08:09:45.491Z,102.8
2022-11-21T08:11:51.106Z,116.3
2022-11-21T08:13:56.722Z,130.3
2022-11-21T08:15:01.073Z,108.7
2022-11-21T08:17:06.710Z,139.1
2022-11-21T08:19:12.331Z,88.2
2022-11-21T08:21:20.033Z,84
2022-11-21T08:23:26.652Z,89.2
2022-11-21T08:25:32.283Z,94.2
2022-11-21T08:27:37.918Z,85.5
2022-11-21T08:31:49.117Z,124.9
2022-11-21T08:33:54.769Z,99.6
2022-11-21T08:36:00.385Z,93.2
2022-11-21T08:38:09.099Z,89.7
2022-11-21T08:40:14.678Z,83.4
2022-11-21T08:42:20.327Z,76.9
2022-11-21T08:46:31.581Z,92.2
2022-11-21T08:48:37.180Z,79.5
2022-11-21T08:50:42.825Z,80.4
2022-11-21T08:52:51.499Z,75.8
2022-11-21T08:54:57.121Z,90.8
2022-11-21T08:57:02.872Z,75.6
2022-11-21T08:59:08.368Z,86.6
2022-11-21T09:01:14.177Z,72.1
2022-11-21T09:03:22.858Z,82.2
2022-11-21T09:09:39.596Z,71.7
2022-11-21T09:11:46.026Z,71.1
2022-11-21T09:12:49.511Z,81.5
2022-11-21T09:14:55.124Z,75.3
2022-11-21T09:17:02.009Z,78.7
2022-11-21T09:19:06.404Z,76.8
2022-11-21T09:21:16.660Z,76.7
2022-11-21T09:23:22.277Z,66.2
2022-11-21T09:25:27.889Z,72
2022-11-21T09:27:33.534Z,68.3
2022-11-21T09:29:39.145Z,86.9
2022-11-21T09:31:46.176Z,72
2022-11-21T09:33:54.746Z,83.2
2022-11-21T09:35:59.048Z,79.4
2022-11-21T09:38:04.684Z,79.9
2022-11-21T09:40:10.337Z,64.5
2022-11-21T09:42:15.939Z,60.7
2022-11-21T09:44:21.543Z,60.4
2022-11-21T09:46:27.154Z,72.7
2022-11-21T09:50:41.498Z,62
2022-11-21T09:52:47.218Z,45.6
2022-11-21T09:56:58.394Z,57.1
2022-11-21T10:01:09.691Z,62.2
2022-11-21T10:03:19.411Z,60.3
2022-11-21T10:07:29.806Z,67
2022-11-21T10:09:35.230Z,48.3
2022-11-21T10:10:39.583Z,70.3
2022-11-21T10:21:10.900Z,65.6
2022-11-21T10:23:16.542Z,71.3
2022-11-21T10:25:26.689Z,75.3
2022-11-21T10:27:27.856Z,73.7
2022-11-21T10:29:33.493Z,72.7
2022-11-21T10:31:39.176Z,71.5
2022-11-21T10:33:47.903Z,74.6
2022-11-21T10:35:53.564Z,71.9
2022-11-21T10:37:59.244Z,73.7
2022-11-21T10:42:10.558Z,69.4
2022-11-21T10:46:21.938Z,70.1
2022-11-21T10:52:41.992Z,80
2022-11-21T10:54:47.685Z,77.4
2022-11-21T10:56:53.362Z,61.2
2022-11-21T10:58:59.205Z,84.1
2022-11-21T11:01:04.840Z,68.7
2022-11-21T11:05:19.651Z,81.6
2022-11-21T11:09:56.878Z,81.6
2022-11-21T11:12:02.565Z,49.5
2022-11-21T11:14:08.257Z,83.1
2022-11-21T11:16:17.795Z,73.1
2022-11-21T11:20:29.154Z,94
2022-11-21T11:24:40.565Z,67.9
2022-11-21T11:26:46.260Z,70.5
2022-11-21T11:28:51.962Z,97
2022-11-21T11:31:00.883Z,96.4
2022-11-21T11:33:06.396Z,78.2
2022-11-21T11:35:12.113Z,71.6
2022-11-21T11:37:17.827Z,72.6
2022-11-21T11:39:23.544Z,73.8
2022-11-21T11:41:29.208Z,80.3
2022-11-21T11:43:34.888Z,105.3
2022-11-21T11:45:43.671Z,91.4
2022-11-21T11:47:54.449Z,75.4
2022-11-21T11:49:55.111Z,81.6
2022-11-21T11:52:00.804Z,81.8
2022-11-21T11:54:06.491Z,77.7
2022-11-21T11:58:17.907Z,70.4
2022-11-21T12:05:42.478Z,86.1
2022-11-21T12:08:39.648Z,90.7
2022-11-21T12:09:53.926Z,76.7
2022-11-21T12:11:59.635Z,84.6
2022-11-21T12:14:08.410Z,91.9
2022-11-21T12:16:14.327Z,91.5
2022-11-21T12:18:19.879Z,94.3
2022-11-21T12:20:25.536Z,91.8
2022-11-21T12:24:41.404Z,79
2022-11-21T12:26:42.694Z,86.6
2022-11-21T12:30:57.203Z,92.6
2022-11-21T12:35:08.633Z,92.6
2022-11-21T12:39:20.095Z,105
2022-11-21T12:41:25.809Z,84.5
2022-11-21T12:43:34.618Z,102.5
2022-11-21T12:45:40.317Z,82
2022-11-21T12:49:54.717Z,91.7
2022-11-21T12:51:57.513Z,76.7
2022-11-21T12:54:03.254Z,80.2
2022-11-21T12:56:08.971Z,83.6
2022-11-21T12:58:17.770Z,89.3
2022-11-21T13:00:23.492Z,85.8
2022-11-21T13:02:29.269Z,74.7
2022-11-21T13:03:33.640Z,100.9
2022-11-21T13:05:39.363Z,77.1
2022-11-21T13:07:45.157Z,80.5
2022-11-21T13:09:50.836Z,96.4
2022-11-21T13:11:59.661Z,67.5
2022-11-21T13:14:05.363Z,62.7
2022-11-21T13:16:11.108Z,92.2
2022-11-21T13:22:28.282Z,77.9
2022-11-21T13:24:33.979Z,60.4
2022-11-21T13:26:42.785Z,87.9
2022-11-21T13:28:49.646Z,65.1
2022-11-21T13:30:54.269Z,66.5
2022-11-21T13:32:59.995Z,77.3
2022-11-21T13:35:05.699Z,92.2
2022-11-21T13:37:11.428Z,67.8
2022-11-21T13:39:17.183Z,92.7
2022-11-21T13:41:25.985Z,74
2022-11-21T13:43:33.653Z,83.1
2022-11-21T13:45:37.530Z,77.2
2022-11-21T13:49:48.963Z,79.1
2022-11-21T13:51:54.671Z,89.7
2022-11-21T13:54:00.423Z,88.8
2022-11-21T13:56:09.227Z,91.4
2022-11-21T14:00:20.697Z,85.5
2022-11-21T14:01:25.140Z,81.3
2022-11-21T14:03:30.805Z,81.8
2022-11-21T14:05:36.574Z,86
2022-11-21T14:07:42.473Z,77.8
2022-11-21T14:09:51.134Z,87.9
2022-11-21T14:11:56.895Z,93.6
2022-11-21T14:14:02.590Z,80.1
2022-11-21T14:16:08.333Z,99.6
2022-11-21T14:18:14.108Z,81
2022-11-21T14:20:19.830Z,81.7
2022-11-21T14:22:29.169Z,103
2022-11-21T14:24:34.414Z,99.2
2022-11-21T14:26:40.134Z,95.8
2022-11-21T14:32:57.401Z,86
2022-11-21T14:35:03.165Z,76.3
2022-11-21T14:37:08.875Z,108.4
2022-11-21T14:39:36.914Z,126.2
2022-11-21T14:41:23.449Z,171.7
2022-11-21T14:43:29.218Z,113.3
2022-11-21T14:49:47.008Z,92.6
2022-11-21T14:54:01.028Z,78.6
2022-11-21T14:56:06.842Z,78.2
2022-11-21T14:58:12.507Z,117.8
2022-11-21T15:00:59.196Z,108.9
2022-11-21T15:02:49.879Z,126.5
2022-11-21T15:04:55.564Z,122.3
2022-11-21T15:07:04.466Z,119.2
2022-11-21T15:15:27.361Z,87.1
2022-11-21T15:19:38.881Z,107.7
2022-11-21T15:21:49.293Z,78.9
2022-11-21T15:23:55.006Z,102.6
2022-11-21T15:26:01.405Z,95.4
2022-11-21T15:32:17.976Z,113.2
2022-11-21T15:34:36.826Z,83.3
2022-11-21T15:36:32.546Z,94.8
2022-11-21T15:42:49.791Z,88.4
2022-11-21T15:44:55.567Z,81.3
2022-11-21T15:47:01.303Z,99.9
2022-11-21T15:49:31.512Z,88.6
2022-11-21T15:51:15.851Z,87.5
2022-11-21T15:53:21.598Z,79.9
2022-11-21T15:55:27.321Z,70.2
2022-11-21T15:56:31.737Z,98.7
2022-11-21T15:58:37.475Z,94.8
2022-11-21T16:02:48.967Z,75.3
2022-11-21T16:04:57.762Z,90.3
2022-11-21T16:09:09.270Z,87.9
2022-11-21T16:13:20.757Z,88.6
2022-11-21T16:15:26.523Z,109.6
2022-11-21T16:17:32.241Z,76.3
2022-11-21T16:21:46.834Z,75.1
2022-11-21T16:23:52.569Z,81.9
2022-11-21T16:25:58.310Z,85.9
2022-11-21T16:28:07.147Z,70
2022-11-21T16:30:09.786Z,92.8
2022-11-21T16:32:15.534Z,94.4
2022-11-21T16:34:24.370Z,96.7
2022-11-21T16:36:30.162Z,87.5
2022-11-21T16:40:41.602Z,71.6
2022-11-21T16:42:47.369Z,100.1
2022-11-21T16:44:53.123Z,69.3
2022-11-21T16:47:02.321Z,82.6
2022-11-21T16:49:07.711Z,94.4
2022-11-21T16:51:13.447Z,78.9
2022-11-21T16:53:19.201Z,71.1
2022-11-21T16:54:23.622Z,82.1
2022-11-21T16:56:29.365Z,60.5
2022-11-21T16:58:35.131Z,82.3
2022-11-21T17:00:40.989Z,68.5
2022-11-21T17:02:49.719Z,68.4
2022-11-21T17:04:55.456Z,69.7
2022-11-21T17:07:01.350Z,94
2022-11-21T17:11:12.681Z,69.8
2022-11-21T17:17:33.044Z,63.2
2022-11-21T17:19:38.757Z,82.8
2022-11-21T17:21:44.513Z,70.5
2022-11-21T17:23:50.259Z,48.6
2022-11-21T17:25:56.017Z,77.1
2022-11-21T17:28:01.762Z,67.7
2022-11-21T17:30:07.534Z,80.5
2022-11-21T17:32:16.345Z,59.8
2022-11-21T17:34:22.628Z,70.1
2022-11-21T17:36:27.827Z,71.4
2022-11-21T17:38:33.595Z,65
2022-11-21T17:40:39.361Z,70.3
2022-11-21T17:42:45.113Z,67.5
2022-11-21T17:44:50.837Z,81.2
2022-11-21T17:46:59.646Z,82.2
2022-11-21T17:49:05.376Z,68.1
2022-11-21T17:51:11.085Z,76.8
2022-11-21T17:52:15.533Z,81.9
2022-11-21T17:54:21.403Z,81.3
2022-11-21T17:56:27.012Z,57.2
2022-11-21T17:58:32.750Z,95.4
2022-11-21T18:02:47.510Z,70.3
2022-11-21T18:04:53.049Z,75.5
2022-11-21T18:06:58.811Z,76.2
2022-11-21T18:09:04.551Z,70.3
2022-11-21T18:11:10.276Z,60.8
2022-11-21T18:13:16.005Z,73.3
2022-11-21T18:15:24.814Z,87.9
2022-11-21T18:17:30.572Z,66.5
2022-11-21T18:19:36.307Z,65.1
2022-11-21T18:21:42.067Z,51.9
2022-11-21T18:23:47.784Z,65.1
2022-11-21T18:25:53.494Z,97.1
2022-11-21T18:27:59.234Z,60.2
2022-11-21T18:30:08.207Z,82.5
2022-11-21T18:32:13.814Z,67.9
2022-11-21T18:34:19.552Z,71.7
2022-11-21T18:36:25.287Z,59.1
2022-11-21T18:38:48.059Z,53
2022-11-21T18:40:36.735Z,60.3
2022-11-21T18:46:57.045Z,70.2
2022-11-21T18:49:06.278Z,71.2
2022-11-21T18:51:34.301Z,68
2022-11-21T18:53:40.050Z,59.2
2022-11-21T18:55:45.792Z,52.2
2022-11-21T18:57:54.595Z,57
2022-11-21T19:00:00.352Z,65.7
2022-11-21T19:02:06.052Z,51.6
2022-11-21T19:04:11.814Z,73.1
2022-11-21T19:06:17.518Z,55.9
2022-11-21T19:08:23.270Z,67
2022-11-21T19:10:42.755Z,71.3
2022-11-21T19:14:43.564Z,56.6
2022-11-21T19:16:49.313Z,56.4
2022-11-21T19:19:32.451Z,65
2022-11-21T19:21:00.793Z,47.1
2022-11-21T19:23:06.539Z,54
2022-11-21T19:25:12.265Z,57.3
2022-11-21T19:27:21.059Z,52.3
2022-11-21T19:29:27.039Z,50.7
2022-11-21T19:31:32.514Z,44.3
2022-11-21T19:33:38.255Z,51.1
2022-11-21T19:35:44.000Z,43.5
2022-11-21T19:37:49.729Z,44
2022-11-21T19:39:55.436Z,55.7
2022-11-21T19:42:04.247Z,62.5
2022-11-21T19:44:09.965Z,70.4
2022-11-21T19:46:15.724Z,67.5
2022-11-21T19:47:20.128Z,68.4
2022-11-21T19:49:25.870Z,56.9
2022-11-21T19:51:31.620Z,38.9
2022-11-21T19:55:46.274Z,45.1
2022-11-21T19:59:57.645Z,43
2022-11-21T20:02:03.432Z,45.9
2022-11-21T20:04:09.180Z,41.2
2022-11-21T20:06:14.855Z,45.3
2022-11-21T20:12:35.153Z,35
2022-11-21T20:14:40.918Z,47.9
2022-11-21T20:16:46.644Z,44.1
2022-11-21T20:20:58.087Z,38.2
2022-11-21T20:23:03.847Z,35.4
2022-11-21T20:27:18.392Z,33.9
2022-11-21T20:29:24.154Z,33.3
2022-11-21T20:31:29.863Z,36.2
2022-11-21T20:33:35.590Z,43.4
2022-11-21T20:35:41.369Z,35
2022-11-21T20:37:47.136Z,29.9
2022-11-21T20:39:55.904Z,35.9
2022-11-21T20:42:01.655Z,39.1
2022-11-21T20:46:06.298Z,38.8
2022-11-21T20:47:17.539Z,38.8
2022-11-21T20:49:23.284Z,32.3
2022-11-21T20:53:51.299Z,37.7
2022-11-21T20:55:43.590Z,37.2
2022-11-21T20:57:49.306Z,38.3
2022-11-21T20:59:55.031Z,41.9
2022-11-21T21:02:00.836Z,30.8
2022-11-21T21:04:06.515Z,29.8
2022-11-21T21:06:12.264Z,48
2022-11-21T21:08:21.083Z,36.4
2022-11-21T21:10:26.835Z,32.6
2022-11-21T21:12:32.567Z,24.9
2022-11-21T21:14:38.287Z,28
2022-11-21T21:16:44.028Z,28.4
2022-11-21T21:18:52.489Z,28.1
2022-11-21T21:21:16.068Z,27.6
2022-11-21T21:23:04.313Z,23.8
2022-11-21T21:25:11.687Z,21.5
2022-11-21T21:27:17.366Z,26.4
2022-11-21T21:29:23.112Z,33.3
2022-11-21T21:33:34.577Z,20.2
2022-11-21T21:35:40.295Z,30.4
2022-11-21T21:37:49.066Z,26
2022-11-21T21:39:54.808Z,25.1
2022-11-21T21:42:00.569Z,17.1
2022-11-21T21:43:04.974Z,22.5
2022-11-21T21:45:10.685Z,37
2022-11-21T21:49:22.144Z,32.4
2022-11-21T21:55:42.464Z,22.7
2022-11-21T21:57:52.271Z,17.7
2022-11-21T21:59:53.937Z,23.7
2022-11-21T22:01:59.748Z,20.2
2022-11-21T22:04:05.421Z,19.5
2022-11-21T22:06:14.216Z,19.8
2022-11-21T22:08:19.978Z,20.8
2022-11-21T22:12:31.455Z,15.7
2022-11-21T22:14:37.184Z,22.3
2022-11-21T22:16:42.918Z,20.2
2022-11-21T22:20:57.470Z,26.6
2022-11-21T22:23:03.191Z,17.3
2022-11-21T22:33:31.947Z,22.9
2022-11-21T22:35:40.710Z,23.9
2022-11-21T22:39:52.209Z,21.9
2022-11-21T22:42:17.633Z,25.5
2022-11-21T22:44:23.370Z,17.3
2022-11-21T22:46:29.148Z,26
2022-11-21T22:48:37.928Z,17.7
2022-11-21T22:50:43.679Z,21.3
2022-11-21T22:52:49.478Z,24.9
2022-11-21T22:54:55.153Z,29.6
2022-11-21T22:57:00.897Z,17.2
2022-11-21T22:59:06.649Z,36.3
2022-11-21T23:01:12.384Z,25.3
2022-11-21T23:03:21.187Z,13.2
2022-11-21T23:05:26.903Z,18.8
2022-11-21T23:07:32.783Z,21.6
2022-11-21T23:09:38.388Z,17.8
2022-11-21T23:11:44.139Z,31.1
2022-11-21T23:13:49.864Z,18.9
2022-11-21T23:15:55.617Z,21.8
2022-11-21T23:18:04.462Z,15.4
2022-11-21T23:20:10.141Z,25.5
2022-11-21T23:22:15.864Z,10.9
2022-11-21T23:24:21.596Z,18
2022-11-21T23:26:27.355Z,17.9
2022-11-21T23:28:33.086Z,15.9
2022-11-21T23:30:38.809Z,15.1
2022-11-21T23:32:47.626Z,43.9
2022-11-21T23:36:59.127Z,17.4
2022-11-21T23:38:03.528Z,22.9
2022-11-21T23:40:09.260Z,18.1
2022-11-21T23:44:20.756Z,17.3
2022-11-21T23:46:29.564Z,23.6
2022-11-21T23:48:35.280Z,24.5
2022-11-21T23:50:41.003Z,18.2
2022-11-21T23:54:52.506Z,14.3
2022-11-21T23:56:58.264Z,25
2022-11-21T23:59:03.958Z,26.2
